Time;durP1;ratioP1;P1;durP2;ratioP2;P2;SDS_P1;SDS_P2;PMS_P1;PMS_P2;Temp;Humidity;BMP_temperature;BMP_pressure;BME280_temperature;BME280_humidity;BME280_pressure;Samples;Min_cycle;Max_cycle;Signal;HPM_P1;HPM_P2
2024/01/11 00:00:43;;;;;;;;;;;-0.30;99.90;;;;;;5090507;28;19927;-72
2024/01/11 00:03:12;;;;;;;;;;;-0.20;99.90;;;;;;5091128;28;20453;-72
2024/01/11 00:05:41;;;;;;;;;;;-0.10;99.90;;;;;;5091727;28;20299;-71
2024/01/11 00:08:09;;;;;;;;;;;0.00;99.90;;;;;;5091503;28;19920;-73
2024/01/11 00:10:37;;;;;;;;;;;0.00;99.90;;;;;;5090338;28;19939;-70
2024/01/11 00:13:05;;;;;;;;;;;0.10;99.90;;;;;;5090651;28;19927;-73
2024/01/11 00:15:33;;;;;;;;;;;0.20;99.90;;;;;;5091011;28;19920;-72
2024/01/11 00:18:01;;;;;;;;;;;0.00;99.90;;;;;;5087915;28;19981;-73
2024/01/11 00:20:29;;;;;;;;;;;0.10;99.90;;;;;;5082738;28;19924;-71
2024/01/11 00:22:58;;;;;;;;;;;0.10;99.90;;;;;;5094561;28;19943;-72
2024/01/11 00:25:26;;;;;;;;;;;0.20;99.90;;;;;;5091404;28;20011;-72
2024/01/11 00:27:53;;;;;;;;;;;0.20;99.90;;;;;;5090548;28;19920;-72
2024/01/11 00:30:23;;;;;;;;;;;0.30;99.90;;;;;;5090654;28;20248;-72
2024/01/11 00:32:51;;;;;;;;;;;0.40;99.90;;;;;;5073965;28;20326;-72
2024/01/11 00:35:19;;;;;;;;;;;0.50;99.90;;;;;;5091259;28;20335;-72
2024/01/11 00:37:46;;;;;;;;;;;0.50;99.90;;;;;;5091068;28;19927;-72
2024/01/11 00:40:15;;;;;;;;;;;0.60;99.90;;;;;;5090497;28;20363;-72
2024/01/11 00:42:43;;;;;;;;;;;0.60;99.90;;;;;;5089841;28;19939;-72
2024/01/11 00:45:11;;;;;;;;;;;0.60;99.90;;;;;;5090902;28;19947;-72
2024/01/11 00:47:39;;;;;;;;;;;0.60;99.90;;;;;;5090811;28;19920;-70
2024/01/11 00:50:07;;;;;;;;;;;0.50;99.90;;;;;;5091131;28;20447;-73
2024/01/11 00:52:35;;;;;;;;;;;0.60;99.90;;;;;;5090714;28;19924;-73
2024/01/11 00:55:03;;;;;;;;;;;0.60;99.90;;;;;;5090589;28;19926;-72
2024/01/11 00:57:32;;;;;;;;;;;0.60;99.90;;;;;;5090808;28;20374;-72
2024/01/11 01:00:00;;;;;;;;;;;0.60;99.90;;;;;;5089951;28;19928;-72
2024/01/11 01:02:28;;;;;;;;;;;0.70;99.90;;;;;;5089871;28;19955;-72
2024/01/11 01:04:56;;;;;;;;;;;0.60;99.90;;;;;;5090697;28;19923;-73
2024/01/11 01:07:23;;;;;;;;;;;0.60;99.90;;;;;;5090685;28;19939;-73
2024/01/11 01:09:51;;;;;;;;;;;0.50;99.90;;;;;;5090812;28;19920;-73
2024/01/11 01:12:19;;;;;;;;;;;0.50;99.90;;;;;;5090280;28;19927;-72
2024/01/11 01:14:48;;;;;;;;;;;0.50;99.90;;;;;;5094336;28;19969;-73
2024/01/11 01:17:16;;;;;;;;;;;0.20;99.90;;;;;;5094484;28;19920;-71
2024/01/11 01:19:44;;;;;;;;;;;0.20;99.90;;;;;;5094518;28;19927;-71
2024/01/11 01:22:12;;;;;;;;;;;0.00;99.90;;;;;;5100710;28;19930;-71
2024/01/11 01:24:42;;;;;;;;;;;0.10;99.90;;;;;;5094330;28;19935;-71
2024/01/11 01:27:09;;;;;;;;;;;-0.10;99.90;;;;;;5094195;28;19955;-72
2024/01/11 01:29:37;;;;;;;;;;;-0.10;99.90;;;;;;5094159;28;19947;-72
2024/01/11 01:32:07;;;;;;;;;;;-0.20;99.90;;;;;;5093361;28;19921;-72
2024/01/11 01:34:34;;;;;;;;;;;-0.10;99.90;;;;;;5094829;28;20409;-72
2024/01/11 01:37:02;;;;;;;;;;;0.00;99.90;;;;;;5094036;28;19975;-72
2024/01/11 01:39:30;;;;;;;;;;;0.10;99.90;;;;;;5094359;28;19920;-72
2024/01/11 01:41:58;;;;;;;;;;;-0.20;99.90;;;;;;5093464;28;20058;-71
2024/01/11 01:44:26;;;;;;;;;;;-0.40;99.90;;;;;;5094391;28;19976;-72
2024/01/11 01:46:53;;;;;;;;;;;-0.70;99.90;;;;;;5093287;28;19926;-72
2024/01/11 01:49:23;;;;;;;;;;;-0.60;99.90;;;;;;5094210;28;19946;-72
2024/01/11 01:51:51;;;;;;;;;;;-0.50;99.90;;;;;;5093408;28;19967;-72
2024/01/11 01:54:19;;;;;;;;;;;-0.50;99.90;;;;;;5094115;28;19988;-72
2024/01/11 01:56:47;;;;;;;;;;;-0.40;99.90;;;;;;5093532;28;19966;-72
2024/01/11 01:59:15;;;;;;;;;;;-0.30;99.90;;;;;;5093712;28;19986;-73
2024/01/11 02:01:43;;;;;;;;;;;-0.40;99.90;;;;;;5092831;28;19920;-72
2024/01/11 02:04:11;;;;;;;;;;;-0.40;99.90;;;;;;5085478;28;19920;-72
2024/01/11 02:06:41;;;;;;;;;;;-0.50;99.90;;;;;;5092308;28;19924;-72
2024/01/11 02:09:10;;;;;;;;;;;-0.40;99.90;;;;;;5093526;28;20446;-72
2024/01/11 02:11:38;;;;;;;;;;;-0.70;99.90;;;;;;5092823;28;19920;-71
2024/01/11 02:14:06;;;;;;;;;;;-1.20;99.90;;;;;;5093058;28;20363;-71
2024/01/11 02:16:34;;;;;;;;;;;-1.10;99.90;;;;;;5093373;28;20350;-72
2024/01/11 02:19:02;;;;;;;;;;;-1.10;99.90;;;;;;5093541;28;19924;-72
2024/01/11 02:21:31;;;;;;;;;;;-1.00;99.90;;;;;;5099900;28;19928;-74
2024/01/11 02:24:04;;;;;;;;;;;-1.00;99.90;;;;;;5092372;28;19920;-71
2024/01/11 02:26:32;;;;;;;;;;;-0.90;99.90;;;;;;5093151;28;19966;-72
2024/01/11 02:29:00;;;;;;;;;;;-0.90;99.90;;;;;;5091347;28;20324;-72
2024/01/11 02:31:28;;;;;;;;;;;-1.20;99.90;;;;;;5086490;28;19927;-70
2024/01/11 02:33:56;;;;;;;;;;;-1.10;99.90;;;;;;5093088;28;19920;-71
2024/01/11 02:36:25;;;;;;;;;;;-1.20;99.90;;;;;;5089158;28;20342;-73
2024/01/11 02:38:54;;;;;;;;;;;-1.30;99.90;;;;;;5090374;28;19927;-73
2024/01/11 02:41:23;;;;;;;;;;;-1.30;99.90;;;;;;5092563;28;19920;-75
2024/01/11 02:43:52;;;;;;;;;;;-1.30;99.90;;;;;;5092697;28;19942;-73
2024/01/11 02:46:20;;;;;;;;;;;-1.40;99.90;;;;;;5093014;28;20287;-68
2024/01/11 02:48:48;;;;;;;;;;;-1.60;99.90;;;;;;5093086;28;19920;-75
2024/01/11 02:51:16;;;;;;;;;;;-1.30;99.90;;;;;;5084731;28;20386;-73
2024/01/11 02:53:44;;;;;;;;;;;-1.20;99.90;;;;;;5092020;28;19998;-72
2024/01/11 02:56:11;;;;;;;;;;;-0.90;99.90;;;;;;5089705;28;19920;-72
2024/01/11 02:58:41;;;;;;;;;;;-0.80;99.90;;;;;;5088178;28;20117;-74
2024/01/11 03:01:08;;;;;;;;;;;-0.80;99.90;;;;;;5091028;28;19924;-73
2024/01/11 03:03:36;;;;;;;;;;;-0.90;99.90;;;;;;5092493;28;19926;-73
2024/01/11 03:06:04;;;;;;;;;;;-0.80;99.90;;;;;;5092652;28;19920;-72
2024/01/11 03:08:32;;;;;;;;;;;-0.60;99.90;;;;;;5092768;28;19924;-73
2024/01/11 03:11:00;;;;;;;;;;;-0.50;99.90;;;;;;5091834;28;19943;-72
2024/01/11 03:13:28;;;;;;;;;;;-0.40;99.90;;;;;;5092178;28;19920;-72
2024/01/11 03:15:58;;;;;;;;;;;-0.60;99.90;;;;;;5091613;28;20283;-73
2024/01/11 03:18:26;;;;;;;;;;;-1.00;99.90;;;;;;5085188;28;20015;-72
2024/01/11 03:20:54;;;;;;;;;;;-1.20;99.90;;;;;;5099731;28;19924;-71
2024/01/11 03:23:22;;;;;;;;;;;-1.20;99.90;;;;;;5092034;28;19928;-72
2024/01/11 03:25:50;;;;;;;;;;;-1.00;99.90;;;;;;5092375;28;19967;-72
2024/01/11 03:28:18;;;;;;;;;;;-1.00;99.90;;;;;;5084976;28;19920;-72
2024/01/11 03:30:46;;;;;;;;;;;-0.90;99.90;;;;;;5091633;28;19924;-72
2024/01/11 03:33:15;;;;;;;;;;;-0.80;99.90;;;;;;5091428;28;19928;-72
2024/01/11 03:35:43;;;;;;;;;;;-0.50;99.90;;;;;;5092233;28;19927;-73
2024/01/11 03:38:10;;;;;;;;;;;-0.40;99.90;;;;;;5092007;28;19920;-72
2024/01/11 03:40:38;;;;;;;;;;;-0.50;99.90;;;;;;5091616;28;19920;-72
2024/01/11 03:43:06;;;;;;;;;;;-0.60;99.90;;;;;;5091612;28;19920;-72
2024/01/11 03:45:34;;;;;;;;;;;-0.50;99.90;;;;;;5083284;28;19927;-73
2024/01/11 03:48:02;;;;;;;;;;;-0.80;99.90;;;;;;5090827;28;20395;-73
2024/01/11 03:50:31;;;;;;;;;;;-0.80;99.90;;;;;;5091417;28;19924;-74
2024/01/11 03:52:59;;;;;;;;;;;-0.60;99.90;;;;;;5091315;28;20394;-72
2024/01/11 03:55:27;;;;;;;;;;;-0.40;99.90;;;;;;5091856;28;20018;-72
2024/01/11 03:57:55;;;;;;;;;;;-0.20;99.90;;;;;;5091400;28;19924;-72
2024/01/11 04:00:23;;;;;;;;;;;-0.10;99.90;;;;;;5090879;28;19931;-72
2024/01/11 04:02:50;;;;;;;;;;;0.00;99.90;;;;;;5091011;28;20451;-73
2024/01/11 04:05:18;;;;;;;;;;;0.00;99.90;;;;;;5092259;28;19951;-72
2024/01/11 04:07:47;;;;;;;;;;;-0.10;99.90;;;;;;5092626;28;19928;-74
2024/01/11 04:10:16;;;;;;;;;;;-0.30;99.90;;;;;;5099791;28;19920;-74
2024/01/11 04:12:44;;;;;;;;;;;-0.20;99.90;;;;;;5098534;28;19923;-75
2024/01/11 04:15:12;;;;;;;;;;;-0.10;99.90;;;;;;5101485;28;20386;-76
2024/01/11 04:17:40;;;;;;;;;;;0.00;99.90;;;;;;5092287;28;19970;-73
2024/01/11 04:20:09;;;;;;;;;;;0.10;99.90;;;;;;5091858;28;19920;-73
2024/01/11 04:22:36;;;;;;;;;;;0.10;99.90;;;;;;5086121;28;19920;-73
2024/01/11 04:25:06;;;;;;;;;;;0.00;99.90;;;;;;5080501;28;19927;-72
2024/01/11 04:27:34;;;;;;;;;;;0.10;99.90;;;;;;5091332;28;20267;-73
2024/01/11 04:30:02;;;;;;;;;;;-0.10;99.90;;;;;;5090853;28;20390;-73
2024/01/11 04:32:30;;;;;;;;;;;-0.20;99.90;;;;;;5083129;28;19920;-74
2024/01/11 04:34:58;;;;;;;;;;;-0.50;99.90;;;;;;5085991;28;20341;-73
2024/01/11 04:37:25;;;;;;;;;;;-0.70;99.90;;;;;;5092888;28;19919;-73
2024/01/11 04:39:53;;;;;;;;;;;-0.60;99.90;;;;;;5092273;28;19920;-73
2024/01/11 04:42:22;;;;;;;;;;;-0.60;99.90;;;;;;5091394;28;19920;-73
2024/01/11 04:44:50;;;;;;;;;;;-0.50;99.90;;;;;;5082993;28;19942;-70
2024/01/11 04:47:18;;;;;;;;;;;-0.60;99.90;;;;;;5091234;28;19920;-72
2024/01/11 04:49:46;;;;;;;;;;;-0.80;99.90;;;;;;5089503;28;19920;-72
2024/01/11 04:52:13;;;;;;;;;;;-0.80;99.90;;;;;;5093105;28;19924;-72
2024/01/11 04:54:41;;;;;;;;;;;-0.50;99.90;;;;;;5095788;28;20406;-75
2024/01/11 04:57:09;;;;;;;;;;;-0.80;99.90;;;;;;5087035;28;19927;-72
2024/01/11 04:59:38;;;;;;;;;;;-1.10;99.90;;;;;;5095991;28;19923;-72
2024/01/11 05:02:06;;;;;;;;;;;-1.20;99.90;;;;;;5094681;28;20387;-71
2024/01/11 05:04:34;;;;;;;;;;;-1.70;99.90;;;;;;5095307;28;20409;-74
2024/01/11 05:07:01;;;;;;;;;;;-2.00;99.90;;;;;;5092006;28;20311;-72
2024/01/11 05:09:29;;;;;;;;;;;-2.00;99.90;;;;;;5095941;28;19919;-73
2024/01/11 05:11:57;;;;;;;;;;;-2.10;99.90;;;;;;5095370;28;19950;-73
2024/01/11 05:14:25;;;;;;;;;;;-1.70;99.90;;;;;;5109224;28;19920;-73
2024/01/11 05:16:54;;;;;;;;;;;-1.20;99.90;;;;;;5082719;28;19920;-73
2024/01/11 05:19:22;;;;;;;;;;;-1.00;99.90;;;;;;5084807;28;19920;-73
2024/01/11 05:21:50;;;;;;;;;;;-1.40;99.90;;;;;;5082862;28;19978;-73
2024/01/11 05:24:18;;;;;;;;;;;-2.00;99.90;;;;;;5085804;28;19927;-73
2024/01/11 05:26:45;;;;;;;;;;;-2.30;99.90;;;;;;5095230;28;19920;-73
2024/01/11 05:29:13;;;;;;;;;;;-2.00;99.90;;;;;;5087280;28;19920;-74
2024/01/11 05:31:41;;;;;;;;;;;-1.70;99.90;;;;;;5090251;28;19951;-75
2024/01/11 05:34:12;;;;;;;;;;;-1.50;99.90;;;;;;5078953;28;19920;-73
2024/01/11 05:36:42;;;;;;;;;;;-1.40;99.90;;;;;;5092272;28;20329;-68
2024/01/11 05:39:09;;;;;;;;;;;-1.90;99.90;;;;;;5087555;28;19927;-72
2024/01/11 05:41:37;;;;;;;;;;;-2.10;99.90;;;;;;5078694;28;20323;-71
2024/01/11 05:44:06;;;;;;;;;;;-2.50;99.90;;;;;;5074699;28;19950;-70
2024/01/11 05:46:33;;;;;;;;;;;-2.70;99.90;;;;;;5075602;28;19928;-68
2024/01/11 05:49:01;;;;;;;;;;;-3.10;99.90;;;;;;5073853;28;20406;-72
2024/01/11 05:51:30;;;;;;;;;;;-3.50;99.90;;;;;;5073513;28;20014;-68
2024/01/11 05:53:58;;;;;;;;;;;-3.70;99.90;;;;;;5076632;28;19928;-71
2024/01/11 05:56:26;;;;;;;;;;;-3.90;99.90;;;;;;5077907;28;21318;-68
2024/01/11 05:58:54;;;;;;;;;;;-3.90;99.90;;;;;;5078220;28;19924;-71
2024/01/11 06:01:22;;;;;;;;;;;-3.80;99.90;;;;;;5078032;28;20432;-70
2024/01/11 06:03:49;;;;;;;;;;;-3.90;99.90;;;;;;5077940;28;20010;-69
2024/01/11 06:06:18;;;;;;;;;;;-4.10;99.90;;;;;;5080867;28;20002;-69
2024/01/11 06:08:48;;;;;;;;;;;-4.00;99.90;;;;;;5078933;28;19931;-73
2024/01/11 06:11:18;;;;;;;;;;;-4.10;99.90;;;;;;5080361;28;19924;-69
2024/01/11 06:13:47;;;;;;;;;;;-4.10;99.90;;;;;;5080232;28;20354;-71
2024/01/11 06:16:14;;;;;;;;;;;-4.20;99.90;;;;;;5079232;28;20027;-69
2024/01/11 06:18:42;;;;;;;;;;;-4.10;99.90;;;;;;5078031;28;19931;-69
2024/01/11 06:21:10;;;;;;;;;;;-4.20;99.90;;;;;;5079578;28;20358;-71
2024/01/11 06:23:38;;;;;;;;;;;-4.10;99.90;;;;;;5080568;28;19923;-70
2024/01/11 06:26:08;;;;;;;;;;;-4.20;99.90;;;;;;5079769;28;19935;-71
2024/01/11 06:28:36;;;;;;;;;;;-4.10;99.90;;;;;;5077137;28;19928;-70
2024/01/11 06:31:04;;;;;;;;;;;-4.10;99.90;;;;;;5078832;28;19997;-71
2024/01/11 06:33:36;;;;;;;;;;;-4.10;99.90;;;;;;5078664;28;19927;-71
2024/01/11 06:36:06;;;;;;;;;;;-4.20;99.90;;;;;;5080188;28;19927;-70
2024/01/11 06:38:33;;;;;;;;;;;-4.20;99.90;;;;;;5077907;28;19981;-69
2024/01/11 06:41:01;;;;;;;;;;;-4.30;99.90;;;;;;5079438;28;20306;-72
2024/01/11 06:43:31;;;;;;;;;;;-4.30;99.90;;;;;;5079014;28;20485;-68
2024/01/11 06:46:02;;;;;;;;;;;-4.30;99.90;;;;;;5078786;28;19924;-68
2024/01/11 06:48:30;;;;;;;;;;;-4.30;99.90;;;;;;5077210;28;19939;-68
2024/01/11 06:50:58;;;;;;;;;;;-4.20;99.90;;;;;;5080078;28;20067;-69
2024/01/11 06:53:29;;;;;;;;;;;-3.80;99.90;;;;;;5080844;28;19932;-72
2024/01/11 06:55:56;;;;;;;;;;;-4.00;99.90;;;;;;5079757;28;19939;-67
2024/01/11 06:58:24;;;;;;;;;;;-4.10;99.90;;;;;;5078920;28;19928;-70
2024/01/11 07:00:54;;;;;;;;;;;-4.20;99.90;;;;;;5081254;28;19935;-70
2024/01/11 07:03:21;;;;;;;;;;;-4.30;99.90;;;;;;5092020;28;19952;-69
2024/01/11 07:05:49;;;;;;;;;;;-4.30;99.90;;;;;;5092230;28;19920;-70
2024/01/11 07:08:17;;;;;;;;;;;-4.40;99.90;;;;;;5092449;28;20275;-68
2024/01/11 07:10:45;;;;;;;;;;;-4.30;99.90;;;;;;5091638;28;19920;-68
2024/01/11 07:13:16;;;;;;;;;;;-4.30;99.90;;;;;;5092436;28;19919;-68
2024/01/11 07:15:44;;;;;;;;;;;-4.30;99.90;;;;;;5091927;28;19920;-73
2024/01/11 07:18:13;;;;;;;;;;;-4.30;99.90;;;;;;5092709;28;19924;-68
2024/01/11 07:20:42;;;;;;;;;;;-4.30;99.90;;;;;;5084090;28;19982;-71
2024/01/11 07:23:10;;;;;;;;;;;-4.20;99.90;;;;;;5092469;28;19920;-69
2024/01/11 07:25:39;;;;;;;;;;;-4.20;99.90;;;;;;5091869;28;19959;-69
2024/01/11 07:28:06;;;;;;;;;;;-4.20;99.90;;;;;;5092182;28;19920;-70
2024/01/11 07:30:34;;;;;;;;;;;-4.20;99.90;;;;;;5091326;28;19932;-69
2024/01/11 07:33:04;;;;;;;;;;;-4.20;99.90;;;;;;5092274;28;20015;-69
2024/01/11 07:35:33;;;;;;;;;;;-4.20;99.90;;;;;;5091504;28;19952;-69
2024/01/11 07:38:01;;;;;;;;;;;-4.20;99.90;;;;;;5092119;28;19920;-70
2024/01/11 07:40:29;;;;;;;;;;;-4.30;99.90;;;;;;5091831;28;19924;-71
2024/01/11 07:43:00;;;;;;;;;;;-4.30;99.90;;;;;;5092028;28;19946;-70
2024/01/11 07:45:28;;;;;;;;;;;-4.30;99.90;;;;;;5091189;28;19927;-70
2024/01/11 07:47:56;;;;;;;;;;;-4.30;99.90;;;;;;5092235;28;19920;-71
2024/01/11 07:50:24;;;;;;;;;;;-4.20;99.90;;;;;;5091852;28;19962;-70
2024/01/11 07:52:53;;;;;;;;;;;-4.10;99.90;;;;;;5091817;28;19920;-71
2024/01/11 07:55:23;;;;;;;;;;;-3.90;99.90;;;;;;5091065;28;19974;-69
2024/01/11 07:57:51;;;;;;;;;;;-3.70;99.90;;;;;;5091735;28;19966;-69
2024/01/11 08:00:20;;;;;;;;;;;-3.50;99.90;;;;;;5091300;28;19924;-69
2024/01/11 08:02:48;;;;;;;;;;;-3.40;99.90;;;;;;5091553;28;19920;-69
2024/01/11 08:05:16;;;;;;;;;;;-3.20;99.90;;;;;;5091093;28;20002;-69
2024/01/11 08:07:44;;;;;;;;;;;-3.00;99.90;;;;;;5091507;28;20015;-69
2024/01/11 08:10:13;;;;;;;;;;;-2.80;99.90;;;;;;5091271;28;20007;-68
2024/01/11 08:12:41;;;;;;;;;;;-2.70;99.90;;;;;;5090969;28;20310;-69
2024/01/11 08:15:12;;;;;;;;;;;-2.50;99.90;;;;;;5090899;28;19924;-71
2024/01/11 08:17:40;;;;;;;;;;;-2.30;99.90;;;;;;5091441;28;19931;-69
2024/01/11 08:20:11;;;;;;;;;;;-2.10;99.90;;;;;;5091679;28;19924;-74
2024/01/11 08:22:39;;;;;;;;;;;-2.00;99.90;;;;;;5090288;28;19924;-71
2024/01/11 08:25:07;;;;;;;;;;;-1.90;99.90;;;;;;5090698;28;20406;-69
2024/01/11 08:27:36;;;;;;;;;;;-1.80;99.90;;;;;;5090961;28;19920;-69
2024/01/11 08:30:05;;;;;;;;;;;-1.60;99.90;;;;;;5091120;28;19920;-71
2024/01/11 08:32:38;;;;;;;;;;;-1.30;99.90;;;;;;5091024;28;19955;-69
2024/01/11 08:35:08;;;;;;;;;;;-1.20;99.90;;;;;;5090775;28;20382;-69
2024/01/11 08:37:36;;;;;;;;;;;-1.10;99.90;;;;;;5091026;28;19920;-72
2024/01/11 08:40:05;;;;;;;;;;;-0.80;99.90;;;;;;5091373;28;20003;-69
2024/01/11 08:42:35;;;;;;;;;;;-0.40;99.90;;;;;;5090650;28;19919;-69
2024/01/11 08:45:06;;;;;;;;;;;0.00;99.90;;;;;;5090407;28;19931;-69
2024/01/11 08:47:35;;;;;;;;;;;0.30;99.90;;;;;;5091300;28;19950;-69
2024/01/11 08:50:05;;;;;;;;;;;0.70;99.90;;;;;;5091343;28;19966;-72
2024/01/11 08:52:34;;;;;;;;;;;1.10;99.90;;;;;;5090757;28;19920;-70
2024/01/11 08:55:02;;;;;;;;;;;1.20;99.90;;;;;;5090273;28;19927;-71
2024/01/11 08:57:30;;;;;;;;;;;1.50;99.90;;;;;;5090675;28;19923;-69
2024/01/11 08:59:59;;;;;;;;;;;1.60;99.90;;;;;;5090533;28;20444;-70
2024/01/11 09:02:27;;;;;;;;;;;1.60;99.90;;;;;;5090408;28;20366;-69
2024/01/11 09:04:55;;;;;;;;;;;1.40;99.90;;;;;;5091150;28;19926;-69
2024/01/11 09:07:23;;;;;;;;;;;1.30;99.90;;;;;;5090609;28;19920;-69
2024/01/11 09:09:51;;;;;;;;;;;1.40;99.90;;;;;;5082712;28;19936;-69
2024/01/11 09:12:24;;;;;;;;;;;1.60;99.90;;;;;;5090161;28;19920;-72
2024/01/11 09:14:52;;;;;;;;;;;1.50;99.90;;;;;;5082342;28;19920;-69
2024/01/11 09:17:21;;;;;;;;;;;1.70;99.90;;;;;;5090409;28;19931;-68
2024/01/11 09:19:50;;;;;;;;;;;1.80;99.90;;;;;;5090596;28;19966;-69
2024/01/11 09:22:18;;;;;;;;;;;1.60;99.90;;;;;;5090784;28;19966;-69
2024/01/11 09:24:46;;;;;;;;;;;1.60;99.90;;;;;;5090231;28;19924;-69
2024/01/11 09:27:15;;;;;;;;;;;1.60;99.90;;;;;;5089686;28;20460;-70
2024/01/11 09:29:43;;;;;;;;;;;1.70;99.90;;;;;;5090290;28;20217;-68
2024/01/11 09:32:11;;;;;;;;;;;1.90;99.90;;;;;;5090589;28;19926;-69
2024/01/11 09:34:40;;;;;;;;;;;2.30;99.90;;;;;;5092437;28;19971;-68
2024/01/11 09:37:08;;;;;;;;;;;2.60;99.90;;;;;;5094287;28;20300;-69
2024/01/11 09:39:36;;;;;;;;;;;2.50;99.90;;;;;;5094244;28;19920;-70
2024/01/11 09:42:06;;;;;;;;;;;2.60;99.90;;;;;;5093690;28;19920;-69
2024/01/11 09:44:35;;;;;;;;;;;2.80;99.90;;;;;;5094003;28;19920;-69
2024/01/11 09:47:04;;;;;;;;;;;3.00;99.90;;;;;;5093504;28;20391;-69
2024/01/11 09:49:32;;;;;;;;;;;3.20;99.90;;;;;;5094187;28;20307;-68
2024/01/11 09:52:02;;;;;;;;;;;3.30;99.90;;;;;;5093937;28;19977;-70
2024/01/11 09:54:30;;;;;;;;;;;3.10;99.90;;;;;;5093742;28;20405;-70
2024/01/11 09:56:59;;;;;;;;;;;2.90;99.90;;;;;;5093028;28;19920;-72
2024/01/11 09:59:27;;;;;;;;;;;2.80;99.90;;;;;;5094146;28;20405;-69
2024/01/11 10:01:55;;;;;;;;;;;2.70;99.90;;;;;;5093424;28;20413;-69
2024/01/11 10:04:23;;;;;;;;;;;2.50;99.90;;;;;;5118445;22;19923;-67
2024/01/11 10:06:52;;;;;;;;;;;2.70;99.90;;;;;;5085572;28;20018;-67
2024/01/11 10:09:22;;;;;;;;;;;2.40;99.90;;;;;;5097644;28;19923;-67
2024/01/11 10:11:53;;;;;;;;;;;2.50;99.90;;;;;;5087601;28;19928;-67
2024/01/11 10:14:21;;;;;;;;;;;2.80;99.90;;;;;;5085383;28;19965;-66
2024/01/11 10:16:49;;;;;;;;;;;2.90;99.90;;;;;;5082011;28;19920;-67
2024/01/11 10:19:18;;;;;;;;;;;3.10;99.90;;;;;;5074465;28;19920;-67
2024/01/11 10:21:47;;;;;;;;;;;3.50;99.90;;;;;;5082436;28;19924;-67
2024/01/11 10:24:18;;;;;;;;;;;3.70;99.90;;;;;;5073519;28;20176;-67
2024/01/11 10:26:47;;;;;;;;;;;3.60;99.90;;;;;;5087373;28;19928;-67
2024/01/11 10:29:17;;;;;;;;;;;3.80;99.90;;;;;;5073554;28;19959;-66
2024/01/11 10:31:45;;;;;;;;;;;4.00;99.90;;;;;;5081863;28;19930;-65
2024/01/11 10:34:13;;;;;;;;;;;4.10;99.90;;;;;;5073454;28;19924;-65
2024/01/11 10:36:41;;;;;;;;;;;4.40;99.90;;;;;;5073631;28;19931;-65
2024/01/11 10:39:11;;;;;;;;;;;4.50;99.90;;;;;;5078017;28;20306;-65
2024/01/11 10:41:41;;;;;;;;;;;4.50;99.90;;;;;;5076194;28;19920;-67
2024/01/11 10:44:17;;;;;;;;;;;4.50;99.90;;;;;;5078255;28;19967;-67
2024/01/11 10:46:46;;;;;;;;;;;4.30;99.90;;;;;;5082209;28;19920;-67
2024/01/11 10:49:17;;;;;;;;;;;4.50;99.90;;;;;;5081720;28;19970;-67
2024/01/11 10:51:45;;;;;;;;;;;4.50;99.90;;;;;;5072704;28;19921;-67
2024/01/11 10:54:14;;;;;;;;;;;4.50;99.90;;;;;;5073785;28;20307;-68
2024/01/11 10:56:43;;;;;;;;;;;4.60;99.90;;;;;;5072650;28;19924;-68
2024/01/11 10:59:13;;;;;;;;;;;4.40;99.90;;;;;;5066588;28;20338;-68
2024/01/11 11:01:42;;;;;;;;;;;4.20;99.90;;;;;;5073682;28;19999;-67
2024/01/11 11:04:10;;;;;;;;;;;4.20;99.90;;;;;;5079802;28;19920;-68
2024/01/11 11:06:39;;;;;;;;;;;4.30;99.90;;;;;;5077447;28;19942;-66
2024/01/11 11:09:08;;;;;;;;;;;4.40;99.90;;;;;;5080559;28;20018;-65
2024/01/11 11:11:37;;;;;;;;;;;4.40;99.90;;;;;;5072531;28;19921;-65
2024/01/11 11:14:06;;;;;;;;;;;4.50;99.90;;;;;;5085419;28;19920;-66
2024/01/11 11:16:35;;;;;;;;;;;4.70;99.90;;;;;;5075674;28;19986;-66
2024/01/11 11:19:03;;;;;;;;;;;4.70;99.90;;;;;;5076650;28;20366;-65
2024/01/11 11:21:31;;;;;;;;;;;4.60;99.90;;;;;;5077625;28;19973;-66
2024/01/11 11:23:59;;;;;;;;;;;4.90;99.90;;;;;;5081415;28;19991;-66
2024/01/11 11:26:27;;;;;;;;;;;5.10;99.90;;;;;;5075689;28;19925;-66
2024/01/11 11:28:55;;;;;;;;;;;5.20;99.30;;;;;;5071728;28;19927;-66
2024/01/11 11:31:42;;;;;;;;;;;5.20;99.40;;;;;;5072408;28;19931;-66
2024/01/11 11:34:12;;;;;;;;;;;5.20;99.20;;;;;;5072792;28;19966;-66
2024/01/11 11:36:41;;;;;;;;;;;5.30;99.40;;;;;;5071308;28;20427;-66
2024/01/11 11:39:12;;;;;;;;;;;5.60;98.90;;;;;;5066276;28;20342;-66
2024/01/11 11:41:42;;;;;;;;;;;5.50;98.80;;;;;;5080781;28;19982;-66
2024/01/11 11:44:13;;;;;;;;;;;5.50;98.80;;;;;;5072866;28;19928;-66
2024/01/11 11:46:43;;;;;;;;;;;5.50;98.90;;;;;;5080614;28;20382;-65
2024/01/11 11:49:13;;;;;;;;;;;5.90;98.70;;;;;;5080144;28;19927;-66
2024/01/11 11:51:42;;;;;;;;;;;5.70;98.30;;;;;;5071292;28;19924;-66
2024/01/11 11:54:10;;;;;;;;;;;5.90;98.00;;;;;;5081071;28;19943;-66
2024/01/11 11:56:38;;;;;;;;;;;6.20;97.10;;;;;;5079540;28;20345;-66
2024/01/11 11:59:07;;;;;;;;;;;6.30;96.80;;;;;;5076025;28;20015;-66
2024/01/11 12:01:36;;;;;;;;;;;6.50;96.60;;;;;;5076783;28;19921;-66
2024/01/11 12:04:05;;;;;;;;;;;6.70;96.50;;;;;;5080901;28;20290;-66
2024/01/11 12:06:33;;;;;;;;;;;7.00;96.40;;;;;;5079692;28;19970;-66
2024/01/11 12:09:02;;;;;;;;;;;7.30;96.10;;;;;;5080395;28;20403;-66
2024/01/11 12:11:30;;;;;;;;;;;7.30;95.00;;;;;;5072302;28;19927;-66
2024/01/11 12:13:58;;;;;;;;;;;7.30;95.30;;;;;;5080401;28;19974;-66
2024/01/11 12:16:27;;;;;;;;;;;7.30;95.00;;;;;;5086128;28;20382;-64
2024/01/11 12:18:55;;;;;;;;;;;7.40;95.10;;;;;;5073633;28;19944;-66
2024/01/11 12:21:25;;;;;;;;;;;7.30;94.90;;;;;;5078497;28;20390;-66
2024/01/11 12:23:53;;;;;;;;;;;7.50;95.20;;;;;;5080100;28;19924;-66
2024/01/11 12:26:22;;;;;;;;;;;7.40;94.60;;;;;;5070571;28;19928;-67
2024/01/11 12:28:52;;;;;;;;;;;7.00;94.80;;;;;;5071635;28;19987;-66
2024/01/11 12:31:20;;;;;;;;;;;6.10;95.70;;;;;;5071661;28;19968;-66
2024/01/11 12:33:48;;;;;;;;;;;5.50;96.50;;;;;;5078845;28;19939;-66
2024/01/11 12:36:16;;;;;;;;;;;4.90;98.10;;;;;;5083580;28;19923;-66
2024/01/11 12:38:49;;;;;;;;;;;4.40;99.10;;;;;;5083822;28;19926;-64
2024/01/11 12:41:21;;;;;;;;;;;3.70;99.90;;;;;;5070047;28;20350;-66
2024/01/11 12:43:49;;;;;;;;;;;3.50;99.90;;;;;;5079629;28;19960;-66
2024/01/11 12:46:17;;;;;;;;;;;3.30;99.90;;;;;;5071019;28;19920;-67
2024/01/11 12:48:45;;;;;;;;;;;3.00;99.90;;;;;;5070918;28;19920;-65
2024/01/11 12:51:13;;;;;;;;;;;2.90;99.90;;;;;;5079989;28;19920;-66
2024/01/11 12:53:49;;;;;;;;;;;2.70;99.90;;;;;;5071509;28;20342;-66
2024/01/11 12:56:18;;;;;;;;;;;2.80;99.90;;;;;;5083998;28;20379;-67
2024/01/11 12:58:47;;;;;;;;;;;2.70;99.90;;;;;;5074295;28;19943;-65
2024/01/11 13:01:15;;;;;;;;;;;2.70;99.90;;;;;;5079672;28;19921;-67
2024/01/11 13:03:45;;;;;;;;;;;2.60;99.90;;;;;;5075669;28;19990;-67
2024/01/11 13:06:15;;;;;;;;;;;2.70;99.90;;;;;;5062665;28;19966;-67
2024/01/11 13:08:43;;;;;;;;;;;2.60;99.90;;;;;;5080318;28;19967;-68
2024/01/11 13:11:16;;;;;;;;;;;2.60;99.90;;;;;;5086485;28;19924;-67
2024/01/11 13:13:46;;;;;;;;;;;2.50;99.90;;;;;;5087359;28;19920;-67
2024/01/11 13:16:15;;;;;;;;;;;2.60;99.90;;;;;;5066261;28;19969;-69
2024/01/11 13:18:44;;;;;;;;;;;2.60;99.90;;;;;;5083256;28;20015;-67
2024/01/11 13:21:12;;;;;;;;;;;2.70;99.90;;;;;;5085856;28;19920;-67
2024/01/11 13:23:41;;;;;;;;;;;2.70;99.90;;;;;;5086590;28;20358;-67
2024/01/11 13:26:09;;;;;;;;;;;2.70;99.90;;;;;;5074779;28;20022;-66
2024/01/11 13:28:38;;;;;;;;;;;2.60;99.90;;;;;;5074278;28;19928;-67
2024/01/11 13:31:08;;;;;;;;;;;2.60;99.90;;;;;;5082413;28;19920;-67
2024/01/11 13:33:38;;;;;;;;;;;2.60;99.90;;;;;;5073714;28;19920;-67
2024/01/11 13:36:07;;;;;;;;;;;2.60;99.90;;;;;;5076344;28;19947;-67
2024/01/11 13:38:35;;;;;;;;;;;2.60;99.90;;;;;;5088060;28;19924;-67
2024/01/11 13:41:05;;;;;;;;;;;2.70;99.90;;;;;;5082298;28;19970;-67
2024/01/11 13:43:32;;;;;;;;;;;2.70;99.90;;;;;;5083127;28;20359;-67
2024/01/11 13:46:04;;;;;;;;;;;2.70;99.90;;;;;;5090346;28;19920;-67
2024/01/11 13:48:32;;;;;;;;;;;2.70;99.90;;;;;;5073531;28;19921;-67
2024/01/11 13:51:01;;;;;;;;;;;2.70;99.90;;;;;;5083353;28;20015;-67
2024/01/11 13:53:30;;;;;;;;;;;2.70;99.90;;;;;;5080487;28;19927;-66
2024/01/11 13:55:58;;;;;;;;;;;2.80;99.90;;;;;;5074258;28;20437;-66
2024/01/11 13:58:26;;;;;;;;;;;2.80;99.90;;;;;;5080148;28;19924;-67
2024/01/11 14:00:54;;;;;;;;;;;2.80;99.90;;;;;;5073860;28;20018;-66
2024/01/11 14:03:24;;;;;;;;;;;2.80;99.90;;;;;;5089498;28;19931;-67
2024/01/11 14:05:52;;;;;;;;;;;2.70;99.90;;;;;;5071359;28;19920;-65
2024/01/11 14:08:20;;;;;;;;;;;2.70;99.90;;;;;;5090166;28;19924;-66
2024/01/11 14:10:48;;;;;;;;;;;2.70;99.90;;;;;;5081591;28;19920;-66
2024/01/11 14:13:16;;;;;;;;;;;2.70;99.90;;;;;;5072447;28;20401;-67
2024/01/11 14:15:44;;;;;;;;;;;2.60;99.90;;;;;;5073189;28;19978;-67
2024/01/11 14:18:12;;;;;;;;;;;2.60;99.90;;;;;;5084545;28;19920;-67
2024/01/11 14:20:42;;;;;;;;;;;2.60;99.90;;;;;;5078861;28;19924;-67
2024/01/11 14:23:10;;;;;;;;;;;2.60;99.90;;;;;;5071631;28;19920;-67
2024/01/11 14:25:38;;;;;;;;;;;2.60;99.90;;;;;;5081643;28;19920;-67
2024/01/11 14:28:06;;;;;;;;;;;2.70;99.90;;;;;;5073704;28;19924;-67
2024/01/11 14:30:35;;;;;;;;;;;2.70;99.90;;;;;;5073638;28;19921;-67